createdAt,value
2019-02-24T00:04:09.644Z,15.20
2019-02-24T00:07:07.204Z,15.73
2019-02-24T00:09:41.664Z,14.73
2019-02-24T00:12:51.780Z,16.07
2019-02-24T00:26:46.234Z,17.50
2019-02-24T00:33:14.147Z,15.17
2019-02-24T00:47:12.611Z,16.17
2019-02-24T00:52:34.767Z,15.97
2019-02-24T00:55:56.022Z,17.07
2019-02-24T01:16:05.299Z,16.57
2019-02-24T01:23:15.187Z,17.10
2019-02-24T01:26:01.897Z,16.33
2019-02-24T01:29:50.650Z,16.30
2019-02-24T01:41:21.998Z,15.87
2019-02-24T01:43:50.178Z,16.67
2019-02-24T01:54:53.063Z,16.10
2019-02-24T02:00:22.787Z,15.80
2019-02-24T02:02:09.531Z,14.67
2019-02-24T02:09:53.780Z,16.47
2019-02-24T02:12:37.504Z,14.60
2019-02-24T02:15:31.369Z,15.13
2019-02-24T02:18:03.074Z,16.20
2019-02-24T03:04:48.362Z,17.43
2019-02-24T03:07:57.542Z,18.20
2019-02-24T03:18:58.181Z,19.27
2019-02-24T03:27:07.663Z,20.50
2019-02-24T03:29:49.235Z,20.23
2019-02-24T03:33:17.540Z,20.70
2019-02-24T03:35:54.821Z,20.03
2019-02-24T03:38:34.182Z,20.90
2019-02-24T03:41:54.107Z,20.20
2019-02-24T03:48:33.874Z,19.87
2019-02-24T03:53:59.042Z,19.40
2019-02-24T03:59:25.642Z,19.90
2019-02-24T04:24:16.843Z,20.67
2019-02-24T04:27:02.035Z,20.47
2019-02-24T04:29:39.730Z,20.23
2019-02-24T04:35:34.970Z,18.73
2019-02-24T04:38:17.467Z,19.87
2019-02-24T04:44:14.623Z,19.93
2019-02-24T04:46:55.230Z,20.97
2019-02-24T04:50:06.410Z,20.13
2019-02-24T05:17:38.649Z,22.53
2019-02-24T05:21:10.302Z,21.70
2019-02-24T05:23:48.022Z,21.90
2019-02-24T05:26:48.198Z,21.50
2019-02-24T05:32:34.157Z,20.40
2019-02-24T05:38:59.887Z,21.23
2019-02-24T05:42:08.001Z,21.67
2019-02-24T05:45:11.322Z,21.03
2019-02-24T05:47:50.411Z,22.07
2019-02-24T05:55:35.456Z,20.97
2019-02-24T06:00:46.313Z,22.13
2019-02-24T06:09:05.913Z,21.00
2019-02-24T06:11:59.026Z,21.67
2019-02-24T06:20:57.403Z,21.83
2019-02-24T06:36:53.464Z,22.63
2019-02-24T06:47:12.864Z,22.60
2019-02-24T06:50:21.532Z,22.27
2019-02-24T06:56:47.392Z,23.37
2019-02-24T07:00:19.561Z,22.90
2019-02-24T07:03:54.482Z,22.90
2019-02-24T07:06:23.110Z,21.60
2019-02-24T07:12:32.420Z,22.50
2019-02-24T07:18:56.816Z,22.70
2019-02-24T07:56:30.684Z,20.07
2019-02-24T08:02:23.710Z,20.87
2019-02-24T08:05:41.058Z,20.67
2019-02-24T08:08:17.783Z,19.73
2019-02-24T08:14:22.927Z,19.80
2019-02-24T08:17:00.336Z,20.43
2019-02-24T08:19:30.095Z,19.00
2019-02-24T08:22:01.331Z,19.63
2019-02-24T08:24:31.307Z,20.27
2019-02-24T08:51:24.610Z,18.50
2019-02-24T08:53:56.955Z,19.10
2019-02-24T09:16:24.693Z,17.43
2019-02-24T09:20:10.240Z,17.47
2019-02-24T09:22:44.995Z,18.10
2019-02-24T09:25:21.541Z,16.93
2019-02-24T09:33:59.305Z,18.23
2019-02-24T09:35:43.079Z,17.33
2019-02-24T09:38:55.494Z,18.13
2019-02-24T09:41:55.027Z,17.80
2019-02-24T09:44:42.762Z,16.70
2019-02-24T09:48:16.255Z,15.80
2019-02-24T09:51:09.104Z,16.70
2019-02-24T09:53:49.168Z,16.63
2019-02-24T09:56:21.544Z,16.90
2019-02-24T09:59:25.016Z,15.87
2019-02-24T10:04:57.913Z,16.33
2019-02-24T10:10:13.683Z,16.53
2019-02-24T10:12:56.393Z,15.93
2019-02-24T10:31:24.438Z,16.00
2019-02-24T10:33:53.139Z,16.77
2019-02-24T10:36:21.620Z,16.47
2019-02-24T10:39:05.660Z,16.50
2019-02-24T10:41:38.758Z,15.83
2019-02-24T10:44:13.259Z,15.40
2019-02-24T10:46:42.911Z,16.83
2019-02-24T10:49:13.632Z,16.47
2019-02-24T10:52:03.543Z,16.50
2019-02-24T10:54:32.278Z,16.90
2019-02-24T10:57:55.885Z,17.50
2019-02-24T11:04:31.751Z,15.70
2019-02-24T11:07:02.965Z,16.73
2019-02-24T11:10:15.156Z,16.33
2019-02-24T11:13:32.321Z,15.57
2019-02-24T11:16:32.378Z,16.10
2019-02-24T11:19:05.534Z,15.70
2019-02-24T11:21:39.614Z,16.00
2019-02-24T11:24:44.803Z,15.57
2019-02-24T11:28:24.292Z,15.77
2019-02-24T11:30:58.477Z,16.70
2019-02-24T11:42:44.379Z,16.57
2019-02-24T11:45:14.145Z,15.93
2019-02-24T11:48:32.834Z,16.90
2019-02-24T11:54:34.681Z,15.77
2019-02-24T11:57:03.798Z,17.73
2019-02-24T11:59:40.852Z,18.03
2019-02-24T12:02:08.802Z,17.10
2019-02-24T12:04:48.972Z,16.17
2019-02-24T12:07:42.359Z,16.33
2019-02-24T12:10:52.552Z,17.50
2019-02-24T12:13:32.495Z,16.43
2019-02-24T12:16:36.607Z,16.27
2019-02-24T12:18:58.276Z,16.37
2019-02-24T12:22:15.149Z,17.57
2019-02-24T12:24:52.630Z,17.30
2019-02-24T12:27:43.811Z,17.37
2019-02-24T12:30:14.028Z,18.17
2019-02-24T12:32:47.651Z,18.07
2019-02-24T12:35:37.602Z,17.37
2019-02-24T12:38:28.734Z,18.53
2019-02-24T12:41:23.294Z,18.60
2019-02-24T12:44:14.211Z,18.00
2019-02-24T12:46:48.767Z,17.57
2019-02-24T12:49:49.152Z,17.83
2019-02-24T12:53:08.083Z,18.67
2019-02-24T12:55:10.813Z,16.90
2019-02-24T12:57:39.307Z,17.87
2019-02-24T13:00:13.458Z,17.10
2019-02-24T13:05:28.978Z,18.37
2019-02-24T13:07:57.413Z,18.60
2019-02-24T13:10:48.006Z,18.13
2019-02-24T13:13:22.513Z,18.53
2019-02-24T13:16:16.585Z,17.27
2019-02-24T13:18:45.984Z,17.87
2019-02-24T13:25:33.335Z,18.23
2019-02-24T13:28:53.191Z,19.93
2019-02-24T13:31:46.722Z,19.63
2019-02-24T13:39:49.740Z,19.80
2019-02-24T14:33:01.226Z,22.47
2019-02-24T14:40:21.335Z,21.87
2019-02-24T14:44:06.802Z,22.67
2019-02-24T14:47:16.224Z,22.83
2019-02-24T15:35:09.852Z,19.97
2019-02-24T15:37:37.551Z,19.90
2019-02-24T15:40:06.473Z,20.23
2019-02-24T15:42:34.308Z,21.10
2019-02-24T15:45:02.167Z,20.20
2019-02-24T15:47:32.285Z,20.80
2019-02-24T15:50:03.258Z,21.17
2019-02-24T15:52:31.055Z,21.10
2019-02-24T15:54:59.070Z,20.53
2019-02-24T15:57:26.956Z,22.27
2019-02-24T15:59:54.763Z,23.07
2019-02-24T16:02:22.723Z,23.77
2019-02-24T16:04:52.478Z,24.67
2019-02-24T16:07:21.420Z,24.53
2019-02-24T16:09:51.290Z,26.07
2019-02-24T16:12:20.176Z,26.70
2019-02-24T16:14:48.430Z,26.57
2019-02-24T16:17:16.126Z,26.23
2019-02-24T16:19:44.415Z,25.77
2019-02-24T16:22:12.166Z,26.63
2019-02-24T16:24:41.597Z,26.90
2019-02-24T16:27:09.977Z,27.30
2019-02-24T16:29:37.717Z,27.73
2019-02-24T16:32:05.393Z,27.67
2019-02-24T16:34:33.124Z,26.93
2019-02-24T16:37:01.346Z,28.43
2019-02-24T16:39:29.071Z,27.30
2019-02-24T16:41:56.906Z,27.70
2019-02-24T16:44:24.749Z,28.40
2019-02-24T16:46:52.690Z,27.23
2019-02-24T16:49:20.480Z,27.83
2019-02-24T16:51:48.300Z,29.37
2019-02-24T16:54:16.008Z,28.63
2019-02-24T16:56:43.967Z,28.43
2019-02-24T16:59:12.928Z,29.23
2019-02-24T17:01:41.837Z,30.60
2019-02-24T17:04:09.697Z,28.17
2019-02-24T17:06:37.588Z,29.30
2019-02-24T17:09:05.611Z,29.73
2019-02-24T17:11:33.442Z,29.87
2019-02-24T17:14:01.295Z,29.43
2019-02-24T17:16:29.096Z,30.57
2019-02-24T17:18:57.777Z,30.57
2019-02-24T17:21:25.549Z,31.43
2019-02-24T17:23:53.410Z,30.53
2019-02-24T17:26:21.900Z,31.57
2019-02-24T17:28:49.819Z,29.73
2019-02-24T17:31:17.605Z,31.00
2019-02-24T17:33:45.379Z,32.13
2019-02-24T17:36:13.295Z,32.23
2019-02-24T17:38:41.143Z,32.00
2019-02-24T17:41:09.769Z,32.33
2019-02-24T17:43:37.583Z,31.13
2019-02-24T17:46:05.662Z,31.97
2019-02-24T17:48:35.194Z,32.90
2019-02-24T17:51:03.515Z,32.60
2019-02-24T17:53:31.328Z,31.73
2019-02-24T17:55:59.059Z,32.10
2019-02-24T17:58:26.924Z,31.50
2019-02-24T18:01:00.162Z,31.93
2019-02-24T18:03:27.977Z,31.80
2019-02-24T18:05:56.508Z,31.23
2019-02-24T18:08:28.202Z,33.07
2019-02-24T18:10:54.666Z,32.57
2019-02-24T18:13:23.516Z,32.17
2019-02-24T18:15:51.408Z,32.67
2019-02-24T18:18:19.304Z,33.10
2019-02-24T18:20:47.173Z,31.60
2019-02-24T18:23:15.141Z,33.17
2019-02-24T18:25:43.149Z,32.03
2019-02-24T18:28:10.913Z,32.93
2019-02-24T18:30:38.944Z,32.03
2019-02-24T18:33:06.848Z,33.70
2019-02-24T18:35:34.918Z,32.23
2019-02-24T18:38:02.694Z,31.10
2019-02-24T18:40:30.463Z,32.63
2019-02-24T18:43:00.513Z,34.17
2019-02-24T18:45:27.935Z,33.60
2019-02-24T18:47:55.903Z,32.37
2019-02-24T18:50:24.035Z,32.23
2019-02-24T18:52:53.529Z,32.97
2019-02-24T18:55:21.311Z,32.23
2019-02-24T18:57:49.167Z,32.23
2019-02-24T19:00:17.321Z,31.37
2019-02-24T19:02:45.489Z,30.80
2019-02-24T19:05:14.031Z,30.97
2019-02-24T19:07:42.529Z,30.77
2019-02-24T19:10:11.988Z,31.30
2019-02-24T19:12:40.567Z,31.70
2019-02-24T19:15:12.741Z,33.10
2019-02-24T19:17:40.596Z,31.90
2019-02-24T19:20:09.777Z,30.10
2019-02-24T19:22:37.657Z,31.20
2019-02-24T19:25:06.179Z,31.70
2019-02-24T19:27:34.063Z,32.37
2019-02-24T19:30:01.854Z,32.73
2019-02-24T19:32:29.676Z,32.37
2019-02-24T19:34:57.400Z,33.47
2019-02-24T19:37:27.866Z,32.83
2019-02-24T19:39:56.941Z,33.33
2019-02-24T19:42:26.239Z,32.23
2019-02-24T19:44:54.457Z,33.60
2019-02-24T19:47:23.296Z,34.43
2019-02-24T19:49:56.054Z,33.40
2019-02-24T19:52:24.021Z,32.30
2019-02-24T19:54:51.896Z,33.57
2019-02-24T19:57:19.809Z,33.37
2019-02-24T19:59:48.180Z,32.97
2019-02-24T20:02:16.424Z,29.97
2019-02-24T20:04:44.192Z,31.00
2019-02-24T20:07:11.935Z,32.97
2019-02-24T20:09:39.924Z,30.93
2019-02-24T20:12:08.744Z,31.87
2019-02-24T20:14:37.155Z,33.07
2019-02-24T20:17:04.876Z,32.63
2019-02-24T20:19:32.894Z,32.50
2019-02-24T20:22:00.644Z,31.27
2019-02-24T20:24:32.992Z,32.13
2019-02-24T20:26:58.323Z,32.37
2019-02-24T20:29:27.159Z,33.83
2019-02-24T20:31:56.037Z,32.10
2019-02-24T20:34:25.795Z,33.07
2019-02-24T20:36:53.507Z,34.47
2019-02-24T20:39:21.285Z,34.00
2019-02-24T20:41:49.609Z,30.43
2019-02-24T20:44:18.037Z,34.40
2019-02-24T20:46:46.212Z,31.43
2019-02-24T20:49:14.456Z,31.83
2019-02-24T20:51:42.525Z,32.53
2019-02-24T20:54:10.352Z,32.73
2019-02-24T20:56:38.299Z,31.47
2019-02-24T20:59:06.028Z,31.77
2019-02-24T21:01:33.953Z,31.90
2019-02-24T21:04:01.800Z,30.57
2019-02-24T21:06:30.714Z,31.43
2019-02-24T21:08:59.638Z,29.03
2019-02-24T21:11:28.471Z,30.53
2019-02-24T21:13:56.137Z,30.77
2019-02-24T21:16:25.947Z,29.77
2019-02-24T21:18:53.470Z,29.87
2019-02-24T21:21:21.452Z,31.23
2019-02-24T21:23:49.545Z,29.97
2019-02-24T21:26:17.553Z,28.17
2019-02-24T21:28:45.342Z,28.20
2019-02-24T21:31:13.206Z,28.47
2019-02-24T21:33:40.866Z,28.70
2019-02-24T21:36:08.740Z,28.47
2019-02-24T21:38:37.034Z,27.67
2019-02-24T21:41:06.171Z,27.73
2019-02-24T21:43:34.223Z,27.73
2019-02-24T21:46:02.072Z,26.60
2019-02-24T21:48:30.463Z,27.37
2019-02-24T21:50:59.379Z,28.87
2019-02-24T21:53:27.441Z,28.97
2019-02-24T21:55:55.183Z,29.13
2019-02-24T21:58:22.929Z,28.43
2019-02-24T22:00:53.486Z,29.03
2019-02-24T22:03:22.572Z,29.33
2019-02-24T22:05:50.564Z,28.93
2019-02-24T22:08:18.245Z,29.07
2019-02-24T22:10:46.083Z,27.80
2019-02-24T22:13:14.260Z,30.53
2019-02-24T22:15:42.038Z,30.07
2019-02-24T22:18:11.283Z,29.43
2019-02-24T22:20:39.137Z,27.97
2019-02-24T22:23:06.953Z,28.83
2019-02-24T22:25:34.806Z,28.13
2019-02-24T22:28:02.668Z,28.40
2019-02-24T22:30:31.254Z,28.63
2019-02-24T22:32:59.246Z,28.73
2019-02-24T22:35:28.373Z,27.90
2019-02-24T22:37:56.171Z,28.37
2019-02-24T22:40:23.843Z,28.50
2019-02-24T22:42:53.361Z,28.87
2019-02-24T22:45:21.342Z,27.90
2019-02-24T22:47:49.075Z,27.50
2019-02-24T22:50:17.051Z,29.50
2019-02-24T22:52:44.928Z,29.43
2019-02-24T22:55:13.990Z,28.87
2019-02-24T22:57:41.718Z,29.27
2019-02-24T23:00:58.501Z,28.33
2019-02-24T23:03:28.917Z,27.80
2019-02-24T23:05:56.790Z,28.90
2019-02-24T23:08:24.588Z,28.20
2019-02-24T23:10:52.424Z,28.40
2019-02-24T23:13:20.381Z,29.40
2019-02-24T23:15:48.484Z,28.50
2019-02-24T23:18:16.155Z,28.30
2019-02-24T23:20:44.013Z,28.93
2019-02-24T23:23:11.907Z,28.77
2019-02-24T23:25:39.618Z,28.90
2019-02-24T23:28:07.379Z,28.43
2019-02-24T23:30:35.078Z,28.83
2019-02-24T23:33:02.922Z,28.87
2019-02-24T23:35:30.667Z,29.80
2019-02-24T23:37:58.359Z,29.03
2019-02-24T23:40:26.231Z,29.37
2019-02-24T23:42:54.053Z,29.37
2019-02-24T23:45:21.935Z,30.27
2019-02-24T23:47:49.584Z,29.67
2019-02-24T23:50:17.484Z,30.00
2019-02-24T23:52:45.333Z,29.90
2019-02-24T23:55:13.386Z,30.07
2019-02-24T23:57:41.292Z,29.83
